createdAt,value
2023-05-22T00:01:33.061Z,16.60
2023-05-22T00:06:34.989Z,16.50
2023-05-22T00:11:36.871Z,16.50
2023-05-22T00:16:38.862Z,16.40
2023-05-22T00:21:40.719Z,16.30
2023-05-22T00:26:42.579Z,16.20
2023-05-22T00:31:44.410Z,16.20
2023-05-22T00:36:46.284Z,16.10
2023-05-22T00:41:48.161Z,16.00
2023-05-22T00:46:50.745Z,15.90
2023-05-22T00:51:52.595Z,15.80
2023-05-22T00:56:54.886Z,15.80
2023-05-22T01:01:57.870Z,15.80
2023-05-22T01:07:03.052Z,15.80
2023-05-22T01:12:16.103Z,15.70
2023-05-22T01:17:38.604Z,15.70
2023-05-22T01:23:09.988Z,15.50
2023-05-22T01:28:17.837Z,15.30
2023-05-22T01:33:21.969Z,15.50
2023-05-22T01:38:25.003Z,15.50
2023-05-22T01:43:27.540Z,15.40
2023-05-22T01:48:29.359Z,15.30
2023-05-22T01:53:56.162Z,15.40
2023-05-22T01:59:15.021Z,15.50
2023-05-22T02:04:22.639Z,15.50
2023-05-22T02:09:28.205Z,15.50
2023-05-22T02:14:30.295Z,15.50
2023-05-22T02:19:37.409Z,15.50
2023-05-22T02:24:46.798Z,15.40
2023-05-22T02:29:48.600Z,15.30
2023-05-22T02:34:50.891Z,15.30
2023-05-22T02:39:53.628Z,15.40
2023-05-22T02:44:55.598Z,15.40
2023-05-22T02:50:00.236Z,15.30
2023-05-22T02:55:02.026Z,15.30
2023-05-22T03:00:07.089Z,15.40
2023-05-22T03:05:09.306Z,15.20
2023-05-22T03:10:11.494Z,15.30
2023-05-22T03:15:13.458Z,15.30
2023-05-22T03:20:16.409Z,15.40
2023-05-22T03:25:20.440Z,15.30
2023-05-22T03:30:22.353Z,15.20
2023-05-22T03:35:25.298Z,15.20
2023-05-22T03:40:27.124Z,15.30
2023-05-22T03:45:29.090Z,15.20
2023-05-22T03:50:31.125Z,15.20
2023-05-22T03:55:33.125Z,15.20
2023-05-22T04:00:34.968Z,15.00
2023-05-22T04:05:37.042Z,15.10
2023-05-22T04:10:39.239Z,15.20
2023-05-22T04:15:43.619Z,15.00
2023-05-22T04:20:45.516Z,15.00
2023-05-22T04:25:48.402Z,15.00
2023-05-22T04:30:50.400Z,14.80
2023-05-22T04:35:52.576Z,14.90
2023-05-22T04:40:55.092Z,15.00
2023-05-22T04:45:56.891Z,14.90
2023-05-22T04:50:58.711Z,15.10
2023-05-22T04:56:00.871Z,15.10
2023-05-22T05:01:03.424Z,14.90
2023-05-22T05:06:05.568Z,15.10
2023-05-22T05:11:07.375Z,15.10
2023-05-22T05:16:09.274Z,15.10
2023-05-22T05:21:11.853Z,15.00
2023-05-22T05:26:13.908Z,15.00
2023-05-22T05:31:15.795Z,14.90
2023-05-22T05:36:17.621Z,15.10
2023-05-22T05:41:19.498Z,15.20
2023-05-22T05:46:21.413Z,14.70
2023-05-22T05:51:23.290Z,14.40
2023-05-22T05:56:25.118Z,14.60
2023-05-22T06:01:27.383Z,14.60
2023-05-22T06:06:30.963Z,14.80
2023-05-22T06:11:33.682Z,14.80
2023-05-22T06:16:35.605Z,14.80
2023-05-22T06:21:37.537Z,14.70
2023-05-22T06:26:39.516Z,15.00
2023-05-22T06:31:41.449Z,15.20
2023-05-22T06:36:43.435Z,15.20
2023-05-22T06:41:45.800Z,15.20
2023-05-22T06:46:47.605Z,15.10
2023-05-22T06:51:49.556Z,15.30
2023-05-22T06:56:51.385Z,15.00
2023-05-22T07:01:53.375Z,14.80
2023-05-22T07:06:55.460Z,15.10
2023-05-22T07:11:57.272Z,14.90
2023-05-22T07:16:59.407Z,14.90
2023-05-22T07:22:01.386Z,15.20
2023-05-22T07:27:04.453Z,14.90
2023-05-22T07:32:06.768Z,15.20
2023-05-22T07:37:12.971Z,15.40
2023-05-22T07:42:15.050Z,15.70
2023-05-22T07:47:17.074Z,16.00
2023-05-22T07:52:19.305Z,16.00
2023-05-22T07:57:21.316Z,15.80
2023-05-22T08:02:23.182Z,15.80
2023-05-22T08:07:25.151Z,15.90
2023-05-22T08:12:27.016Z,15.90
2023-05-22T08:17:28.923Z,16.10
2023-05-22T08:22:31.360Z,16.30
2023-05-22T08:27:33.349Z,16.40
2023-05-22T08:32:35.303Z,16.60
2023-05-22T08:37:37.367Z,16.60
2023-05-22T08:42:39.482Z,16.60
2023-05-22T08:47:44.261Z,16.50
2023-05-22T08:52:57.300Z,16.80
2023-05-22T08:58:00.629Z,17.00
2023-05-22T09:03:02.975Z,17.00
2023-05-22T09:08:16.100Z,17.10
2023-05-22T09:13:32.117Z,16.90
2023-05-22T09:18:34.019Z,16.80
2023-05-22T09:23:35.861Z,16.70
2023-05-22T09:28:37.742Z,17.00
2023-05-22T09:33:39.600Z,17.10
2023-05-22T09:38:41.872Z,17.00
2023-05-22T09:43:50.922Z,17.00
2023-05-22T09:48:53.241Z,17.00
2023-05-22T09:54:03.503Z,17.10
2023-05-22T09:59:09.896Z,17.20
2023-05-22T10:04:16.915Z,17.20
2023-05-22T10:09:30.911Z,17.20
2023-05-22T10:14:36.229Z,17.00
2023-05-22T10:19:42.834Z,17.30
2023-05-22T10:24:48.146Z,17.40
2023-05-22T10:30:06.594Z,17.30
2023-05-22T10:35:38.297Z,17.40
2023-05-22T10:40:41.837Z,17.40
2023-05-22T10:45:46.635Z,17.80
2023-05-22T10:50:54.772Z,18.00
2023-05-22T10:55:58.223Z,18.40
2023-05-22T11:01:20.276Z,18.10
2023-05-22T11:06:47.673Z,17.80
2023-05-22T11:12:25.774Z,17.70
2023-05-22T11:17:29.140Z,17.90
2023-05-22T11:22:39.908Z,17.70
2023-05-22T11:27:42.411Z,18.10
2023-05-22T11:32:46.049Z,18.20
2023-05-22T11:37:50.406Z,18.50
2023-05-22T11:42:53.818Z,18.20
2023-05-22T11:47:56.012Z,18.00
2023-05-22T11:52:59.400Z,18.50
2023-05-22T11:58:02.744Z,18.40
2023-05-22T12:03:06.620Z,18.80
2023-05-22T12:08:08.646Z,18.70
2023-05-22T12:13:10.669Z,18.20
2023-05-22T12:18:12.544Z,18.40
2023-05-22T12:23:28.102Z,18.50
2023-05-22T12:28:32.896Z,18.80
2023-05-22T12:33:34.777Z,18.90
2023-05-22T12:38:39.316Z,19.10
2023-05-22T12:43:41.198Z,18.90
2023-05-22T12:48:43.028Z,19.80
2023-05-22T12:53:44.985Z,19.60
2023-05-22T12:58:46.843Z,20.10
2023-05-22T13:03:48.701Z,20.20
2023-05-22T13:08:51.460Z,20.70
2023-05-22T13:13:53.280Z,20.80
2023-05-22T13:18:55.108Z,20.40
2023-05-22T13:23:57.303Z,20.10
2023-05-22T13:28:59.168Z,21.10
2023-05-22T13:34:03.157Z,21.90
2023-05-22T13:39:05.129Z,21.50
2023-05-22T13:44:06.955Z,21.10
2023-05-22T13:49:08.896Z,21.60
2023-05-22T13:54:11.171Z,21.20
2023-05-22T13:59:13.052Z,20.70
2023-05-22T14:04:14.871Z,21.20
2023-05-22T14:09:17.253Z,20.90
2023-05-22T14:14:24.006Z,21.10
2023-05-22T14:19:26.140Z,21.30
2023-05-22T14:24:28.042Z,21.10
2023-05-22T14:29:29.879Z,20.90
2023-05-22T14:34:31.909Z,20.90
2023-05-22T14:39:33.822Z,20.70
2023-05-22T14:44:35.634Z,20.80
2023-05-22T14:49:37.457Z,20.40
2023-05-22T14:54:39.390Z,20.30
2023-05-22T14:59:41.210Z,20.50
2023-05-22T15:04:44.776Z,20.40
2023-05-22T15:09:46.697Z,20.20
2023-05-22T15:14:48.606Z,20.80
2023-05-22T15:19:50.513Z,20.70
2023-05-22T15:25:15.042Z,20.80
2023-05-22T15:30:18.450Z,21.00
2023-05-22T15:35:21.459Z,20.80
2023-05-22T15:40:24.064Z,20.70
2023-05-22T15:45:25.903Z,20.60
2023-05-22T15:50:28.012Z,20.60
2023-05-22T15:55:29.907Z,20.50
2023-05-22T16:00:34.235Z,20.40
2023-05-22T16:05:37.259Z,20.40
2023-05-22T16:10:41.596Z,20.30
2023-05-22T16:15:44.116Z,20.30
2023-05-22T16:20:46.222Z,20.10
2023-05-22T16:25:50.184Z,19.90
2023-05-22T16:30:52.780Z,19.80
2023-05-22T16:35:54.608Z,20.20
2023-05-22T16:40:56.459Z,20.10
2023-05-22T16:45:58.279Z,19.90
2023-05-22T16:51:00.217Z,19.80
2023-05-22T16:56:02.071Z,20.20
2023-05-22T17:01:06.158Z,20.70
2023-05-22T17:06:09.010Z,20.80
2023-05-22T17:11:10.893Z,20.60
2023-05-22T17:16:12.698Z,20.20
2023-05-22T17:21:14.548Z,20.20
2023-05-22T17:26:16.609Z,20.20
2023-05-22T17:31:18.440Z,20.30
2023-05-22T17:36:20.480Z,20.20
2023-05-22T17:41:24.284Z,20.40
2023-05-22T17:46:26.782Z,20.20
2023-05-22T17:51:28.738Z,20.10
2023-05-22T17:56:30.591Z,19.60
2023-05-22T18:01:32.573Z,19.50
2023-05-22T18:06:34.516Z,19.50
2023-05-22T18:11:37.562Z,19.40
2023-05-22T18:16:39.463Z,19.10
2023-05-22T18:21:41.768Z,19.20
2023-05-22T18:26:43.562Z,19.10
2023-05-22T18:31:45.713Z,19.00
2023-05-22T18:36:49.291Z,18.90
2023-05-22T18:41:52.078Z,18.80
2023-05-22T18:46:54.072Z,18.80
2023-05-22T18:51:55.954Z,18.60
2023-05-22T18:56:57.761Z,18.50
2023-05-22T19:01:59.585Z,18.20
2023-05-22T19:07:01.446Z,18.40
2023-05-22T19:12:03.778Z,18.30
2023-05-22T19:17:05.767Z,18.10
2023-05-22T19:22:07.754Z,18.00
2023-05-22T19:27:09.929Z,18.00
2023-05-22T19:32:11.831Z,17.90
2023-05-22T19:37:13.653Z,17.80
2023-05-22T19:42:15.682Z,17.80
2023-05-22T19:47:17.601Z,17.60
2023-05-22T19:52:19.544Z,17.50
2023-05-22T19:57:21.447Z,17.50
2023-05-22T20:02:23.369Z,17.40
2023-05-22T20:07:25.415Z,17.50
2023-05-22T20:12:27.210Z,17.40
2023-05-22T20:17:32.216Z,17.40
2023-05-22T20:22:34.441Z,17.30
2023-05-22T20:27:36.554Z,17.30
2023-05-22T20:32:39.401Z,17.20
2023-05-22T20:37:41.685Z,17.10
2023-05-22T20:42:43.667Z,17.00
2023-05-22T20:47:47.128Z,17.00
2023-05-22T20:52:49.147Z,16.80
2023-05-22T20:57:50.955Z,16.80
2023-05-22T21:02:52.847Z,16.60
2023-05-22T21:07:54.777Z,16.60
2023-05-22T21:12:56.636Z,16.50
2023-05-22T21:17:58.479Z,16.30
2023-05-22T21:23:00.587Z,16.30
2023-05-22T21:28:02.746Z,16.30
2023-05-22T21:33:04.729Z,16.20
2023-05-22T21:38:06.630Z,16.10
2023-05-22T21:43:08.806Z,16.00
2023-05-22T21:48:14.205Z,16.00
2023-05-22T21:53:16.032Z,16.00
2023-05-22T21:58:17.898Z,16.00
2023-05-22T22:03:19.840Z,16.00
2023-05-22T22:08:21.714Z,15.90
2023-05-22T22:13:23.592Z,15.90
2023-05-22T22:18:26.096Z,15.90
2023-05-22T22:23:28.975Z,15.80
2023-05-22T22:28:31.035Z,15.80
2023-05-22T22:33:33.360Z,15.70
2023-05-22T22:38:35.402Z,15.70
2023-05-22T22:43:37.266Z,15.70
2023-05-22T22:48:41.728Z,15.70
2023-05-22T22:53:43.540Z,15.60
2023-05-22T22:58:45.405Z,15.60
2023-05-22T23:03:47.255Z,15.70
2023-05-22T23:08:49.187Z,15.60
2023-05-22T23:13:51.438Z,15.70
2023-05-22T23:18:53.412Z,15.70
2023-05-22T23:23:55.326Z,15.50
2023-05-22T23:29:00.539Z,15.50
2023-05-22T23:34:02.396Z,15.40
2023-05-22T23:39:04.307Z,15.50
2023-05-22T23:44:06.282Z,15.40
2023-05-22T23:49:08.298Z,15.30
2023-05-22T23:54:10.165Z,15.40
2023-05-22T23:59:11.998Z,15.50
